createdAt,value
2018-08-22T00:00:52.060Z,2.13
2018-08-22T00:03:19.418Z,2.43
2018-08-22T00:05:46.787Z,2.90
2018-08-22T00:08:14.107Z,2.27
2018-08-22T00:10:41.584Z,2.67
2018-08-22T00:13:08.911Z,3.10
2018-08-22T00:15:36.423Z,2.90
2018-08-22T00:18:04.175Z,2.10
2018-08-22T00:20:31.531Z,2.70
2018-08-22T00:22:58.987Z,2.97
2018-08-22T00:25:26.686Z,2.37
2018-08-22T00:27:53.959Z,3.07
2018-08-22T00:30:21.320Z,2.80
2018-08-22T00:32:48.771Z,2.60
2018-08-22T00:35:16.200Z,2.50
2018-08-22T00:37:43.524Z,3.13
2018-08-22T00:40:10.907Z,2.67
2018-08-22T00:42:38.347Z,2.90
2018-08-22T00:45:05.682Z,2.80
2018-08-22T00:47:33.068Z,2.83
2018-08-22T00:50:00.471Z,2.50
2018-08-22T00:52:27.826Z,2.50
2018-08-22T00:54:57.893Z,2.77
2018-08-22T00:57:25.251Z,3.10
2018-08-22T00:59:52.599Z,2.90
2018-08-22T01:02:19.939Z,2.70
2018-08-22T01:04:47.408Z,2.90
2018-08-22T01:07:14.766Z,3.20
2018-08-22T01:09:42.128Z,2.70
2018-08-22T01:12:09.461Z,3.20
2018-08-22T01:14:36.963Z,3.10
2018-08-22T01:17:04.565Z,2.90
2018-08-22T01:19:31.940Z,2.50
2018-08-22T01:21:59.996Z,2.70
2018-08-22T01:24:27.365Z,3.07
2018-08-22T01:26:54.792Z,3.53
2018-08-22T01:29:22.191Z,2.50
2018-08-22T01:31:49.514Z,2.80
2018-08-22T01:34:16.838Z,2.80
2018-08-22T01:36:44.195Z,2.63
2018-08-22T01:39:11.614Z,3.00
2018-08-22T01:41:39.089Z,2.47
2018-08-22T01:44:07.560Z,3.13
2018-08-22T01:46:35.987Z,2.33
2018-08-22T01:49:04.723Z,3.30
2018-08-22T01:51:32.059Z,2.60
2018-08-22T01:53:59.430Z,2.60
2018-08-22T01:56:26.783Z,3.00
2018-08-22T01:58:54.214Z,2.93
2018-08-22T02:01:21.593Z,3.00
2018-08-22T02:03:48.982Z,3.20
2018-08-22T02:06:16.411Z,2.73
2018-08-22T02:08:43.791Z,3.03
2018-08-22T02:11:11.268Z,3.00
2018-08-22T02:13:38.615Z,2.70
2018-08-22T02:16:08.487Z,2.73
2018-08-22T02:18:35.955Z,2.77
2018-08-22T02:21:03.371Z,3.03
2018-08-22T02:23:30.833Z,2.90
2018-08-22T02:25:58.200Z,2.90
2018-08-22T02:28:25.511Z,3.17
2018-08-22T02:30:52.955Z,3.20
2018-08-22T02:33:20.312Z,3.07
2018-08-22T02:35:47.709Z,2.80
2018-08-22T02:38:20.783Z,2.97
2018-08-22T02:40:48.143Z,2.87
2018-08-22T02:43:15.535Z,2.40
2018-08-22T02:45:45.715Z,2.73
2018-08-22T02:48:13.067Z,2.77
2018-08-22T02:50:40.591Z,2.77
2018-08-22T02:53:07.947Z,2.90
2018-08-22T02:55:35.297Z,2.97
2018-08-22T02:58:02.700Z,3.90
2018-08-22T03:00:30.044Z,3.23
2018-08-22T03:02:57.405Z,3.47
2018-08-22T03:05:24.747Z,3.00
2018-08-22T03:07:52.163Z,2.87
2018-08-22T03:10:19.491Z,3.60
2018-08-22T03:12:46.833Z,3.83
2018-08-22T03:15:14.208Z,3.50
2018-08-22T03:17:41.687Z,3.40
2018-08-22T03:20:09.030Z,4.10
2018-08-22T03:22:36.443Z,3.27
2018-08-22T03:25:03.827Z,3.60
2018-08-22T03:27:31.240Z,3.23
2018-08-22T03:29:58.605Z,3.70
2018-08-22T03:32:25.963Z,3.70
2018-08-22T03:34:53.287Z,3.60
2018-08-22T03:37:20.697Z,3.90
2018-08-22T03:39:48.079Z,3.30
2018-08-22T03:42:15.415Z,3.67
2018-08-22T03:44:42.748Z,3.60
2018-08-22T03:47:10.102Z,4.03
2018-08-22T03:49:37.455Z,3.77
2018-08-22T03:52:04.779Z,3.60
2018-08-22T03:54:32.157Z,3.50
2018-08-22T03:56:59.489Z,4.17
2018-08-22T03:59:26.963Z,3.60
2018-08-22T04:01:55.767Z,3.53
2018-08-22T04:04:23.133Z,4.03
2018-08-22T04:06:50.475Z,3.70
2018-08-22T04:09:17.811Z,3.30
2018-08-22T04:11:46.388Z,3.43
2018-08-22T04:14:13.739Z,4.03
2018-08-22T04:16:41.544Z,3.50
2018-08-22T04:19:08.900Z,3.90
2018-08-22T04:21:36.303Z,4.73
2018-08-22T04:24:04.103Z,3.70
2018-08-22T04:26:31.504Z,4.00
2018-08-22T04:28:58.903Z,3.97
2018-08-22T04:31:26.297Z,3.30
2018-08-22T04:33:53.755Z,3.73
2018-08-22T04:36:21.143Z,3.57
2018-08-22T04:38:50.151Z,3.60
2018-08-22T04:41:17.563Z,3.60
2018-08-22T04:43:45.016Z,3.70
2018-08-22T04:46:12.420Z,3.33
2018-08-22T04:48:39.950Z,3.57
2018-08-22T04:51:07.404Z,3.30
2018-08-22T04:53:34.811Z,3.60
2018-08-22T04:56:02.504Z,3.30
2018-08-22T04:58:29.919Z,3.30
2018-08-22T05:00:57.488Z,3.50
2018-08-22T05:03:24.959Z,3.70
2018-08-22T05:05:53.327Z,3.57
2018-08-22T05:08:20.676Z,3.63
2018-08-22T05:10:49.698Z,3.83
2018-08-22T05:13:17.158Z,3.73
2018-08-22T05:15:44.536Z,3.70
2018-08-22T05:18:11.921Z,3.50
2018-08-22T05:20:39.357Z,3.80
2018-08-22T05:23:06.835Z,3.73
2018-08-22T05:25:34.200Z,3.10
2018-08-22T05:28:01.590Z,3.57
2018-08-22T05:30:28.935Z,3.53
2018-08-22T05:32:56.311Z,3.63
2018-08-22T05:35:23.697Z,3.40
2018-08-22T05:37:51.005Z,3.83
2018-08-22T05:40:18.362Z,3.63
2018-08-22T05:42:45.683Z,3.77
2018-08-22T05:45:13.619Z,3.80
2018-08-22T05:47:40.968Z,4.10
2018-08-22T05:50:08.400Z,3.70
2018-08-22T05:52:35.788Z,4.80
2018-08-22T05:55:03.255Z,4.37
2018-08-22T05:57:30.671Z,4.80
2018-08-22T05:59:58.034Z,4.00
2018-08-22T06:02:25.400Z,5.27
2018-08-22T06:04:52.744Z,4.90
2018-08-22T06:07:20.075Z,4.93
2018-08-22T06:09:47.431Z,6.03
2018-08-22T06:12:14.731Z,4.40
2018-08-22T06:14:42.152Z,5.00
2018-08-22T06:17:09.479Z,4.77
2018-08-22T06:19:36.816Z,4.67
2018-08-22T06:22:04.263Z,4.40
2018-08-22T06:24:32.580Z,5.37
2018-08-22T06:27:00.016Z,4.97
2018-08-22T06:29:27.416Z,4.80
2018-08-22T06:31:54.751Z,4.97
2018-08-22T06:34:22.154Z,5.20
2018-08-22T06:36:49.483Z,5.47
2018-08-22T06:39:16.845Z,5.17
2018-08-22T06:41:46.475Z,4.77
2018-08-22T06:44:13.837Z,4.80
2018-08-22T06:46:41.167Z,6.17
2018-08-22T06:49:08.537Z,4.60
2018-08-22T06:51:35.923Z,4.70
2018-08-22T06:54:03.318Z,5.70
2018-08-22T06:56:30.671Z,4.87
2018-08-22T06:58:58.123Z,5.60
2018-08-22T07:01:25.916Z,4.70
2018-08-22T07:03:53.248Z,4.83
2018-08-22T07:06:20.596Z,4.50
2018-08-22T07:08:47.912Z,4.90
2018-08-22T07:11:15.270Z,5.10
2018-08-22T07:13:42.584Z,4.87
2018-08-22T07:16:10.231Z,5.30
2018-08-22T07:18:37.559Z,5.00
2018-08-22T07:21:04.915Z,4.43
2018-08-22T07:23:32.272Z,5.13
2018-08-22T07:26:00.467Z,4.37
2018-08-22T07:28:27.872Z,5.73
2018-08-22T07:30:55.367Z,5.70
2018-08-22T07:33:22.757Z,6.07
2018-08-22T07:35:50.259Z,6.13
2018-08-22T07:38:17.596Z,5.30
2018-08-22T07:40:45.012Z,6.30
2018-08-22T07:43:12.712Z,5.00
2018-08-22T07:45:40.298Z,5.70
2018-08-22T07:48:09.975Z,6.80
2018-08-22T07:50:37.379Z,5.07
2018-08-22T07:53:05.287Z,5.90
2018-08-22T07:55:35.632Z,4.77
2018-08-22T07:58:05.108Z,5.87
2018-08-22T08:00:32.472Z,6.30
2018-08-22T08:03:00.172Z,6.40
2018-08-22T08:05:28.476Z,5.20
2018-08-22T08:07:55.848Z,5.37
2018-08-22T08:10:32.563Z,5.00
2018-08-22T08:13:00.272Z,4.90
2018-08-22T08:15:27.683Z,5.97
2018-08-22T08:17:55.329Z,4.80
2018-08-22T08:20:23.208Z,5.00
2018-08-22T08:22:54.725Z,5.13
2018-08-22T08:25:22.152Z,5.00
2018-08-22T08:27:49.647Z,4.83
2018-08-22T08:30:17.067Z,4.20
2018-08-22T08:32:44.647Z,4.60
2018-08-22T08:35:12.076Z,5.50
2018-08-22T08:37:39.507Z,4.67
2018-08-22T08:40:06.954Z,5.23
2018-08-22T08:42:34.337Z,6.53
2018-08-22T08:45:01.777Z,4.70
2018-08-22T08:47:29.171Z,5.03
2018-08-22T08:49:56.557Z,5.10
2018-08-22T08:52:23.939Z,4.90
2018-08-22T08:54:56.235Z,5.60
2018-08-22T08:57:23.738Z,5.20
2018-08-22T08:59:51.918Z,6.00
2018-08-22T09:02:19.395Z,7.10
2018-08-22T09:04:46.863Z,5.80
2018-08-22T09:07:18.602Z,5.60
2018-08-22T09:09:45.984Z,5.90
2018-08-22T09:12:13.443Z,5.80
2018-08-22T09:14:40.956Z,6.00
2018-08-22T09:17:08.466Z,5.60
2018-08-22T09:19:35.848Z,5.23
2018-08-22T09:22:04.742Z,5.80
2018-08-22T09:24:32.257Z,5.90
2018-08-22T09:26:59.745Z,5.67
2018-08-22T09:29:27.144Z,5.07
2018-08-22T09:31:54.535Z,5.20
2018-08-22T09:34:21.958Z,5.97
2018-08-22T09:36:53.605Z,5.73
2018-08-22T09:39:21.077Z,6.10
2018-08-22T09:41:48.457Z,5.53
2018-08-22T09:44:15.863Z,6.40
2018-08-22T09:46:43.328Z,5.43
2018-08-22T09:49:10.692Z,5.73
2018-08-22T09:51:39.452Z,6.47
2018-08-22T09:54:06.879Z,5.27
2018-08-22T09:56:34.276Z,6.43
2018-08-22T09:59:01.637Z,5.63
2018-08-22T10:01:36.886Z,5.60
2018-08-22T10:04:06.688Z,5.63
2018-08-22T10:06:37.308Z,6.27
2018-08-22T10:09:08.496Z,6.30
2018-08-22T10:11:35.967Z,5.97
2018-08-22T10:14:07.040Z,6.47
2018-08-22T10:16:34.468Z,6.67
2018-08-22T10:19:01.953Z,6.90
2018-08-22T10:21:29.324Z,6.83
2018-08-22T10:23:56.756Z,5.93
2018-08-22T10:26:24.299Z,5.70
2018-08-22T10:28:55.040Z,6.27
2018-08-22T10:31:23.213Z,6.50
2018-08-22T10:33:50.609Z,6.30
2018-08-22T10:36:17.924Z,6.90
2018-08-22T10:38:45.290Z,6.90
2018-08-22T10:41:14.891Z,7.27
2018-08-22T10:43:43.754Z,5.83
2018-08-22T10:46:11.067Z,6.30
2018-08-22T10:48:38.432Z,6.33
2018-08-22T10:51:06.348Z,6.77
2018-08-22T10:53:33.765Z,6.17
2018-08-22T10:56:03.328Z,6.80
2018-08-22T10:58:31.019Z,6.00
2018-08-22T11:00:58.445Z,6.60
2018-08-22T11:03:25.907Z,6.33
2018-08-22T11:05:53.296Z,7.67
2018-08-22T11:08:23.509Z,7.10
2018-08-22T11:10:52.684Z,7.77
2018-08-22T11:13:20.069Z,6.50
2018-08-22T11:15:47.608Z,7.40
2018-08-22T11:18:15.001Z,7.60
2018-08-22T11:20:43.435Z,7.37
2018-08-22T11:23:22.981Z,7.27
2018-08-22T11:26:02.077Z,7.20
2018-08-22T11:28:42.327Z,7.40
2018-08-22T11:31:21.327Z,7.03
2018-08-22T11:34:00.896Z,6.57
2018-08-22T11:36:27.390Z,7.13
2018-08-22T11:38:54.945Z,6.00
2018-08-22T11:41:22.316Z,6.93
2018-08-22T11:43:49.695Z,6.43
2018-08-22T11:46:20.906Z,6.20
2018-08-22T11:48:48.320Z,6.40
2018-08-22T11:51:15.903Z,7.10
2018-08-22T11:53:43.907Z,7.23
2018-08-22T11:56:11.348Z,6.60
2018-08-22T11:58:38.736Z,6.80
2018-08-22T12:01:06.125Z,6.70
2018-08-22T12:03:38.490Z,6.87
2018-08-22T12:06:05.919Z,8.67
2018-08-22T12:08:33.357Z,6.83
2018-08-22T12:11:00.740Z,7.27
2018-08-22T12:13:28.203Z,6.20
2018-08-22T12:15:55.871Z,6.30
2018-08-22T12:18:24.628Z,6.10
2018-08-22T12:20:52.063Z,6.77
2018-08-22T12:23:19.518Z,6.50
2018-08-22T12:25:47.203Z,6.53
2018-08-22T12:28:14.552Z,7.07
2018-08-22T12:30:41.961Z,7.40
2018-08-22T12:33:14.484Z,6.00
2018-08-22T12:35:41.811Z,6.30
2018-08-22T12:38:09.159Z,6.77
2018-08-22T12:40:36.525Z,5.60
2018-08-22T12:43:04.104Z,5.97
2018-08-22T12:45:31.418Z,6.40
2018-08-22T12:48:03.915Z,5.90
2018-08-22T12:50:31.269Z,5.97
2018-08-22T12:52:58.623Z,5.90
2018-08-22T12:55:26.041Z,6.23
2018-08-22T12:57:53.396Z,6.23
2018-08-22T13:00:23.135Z,6.43
2018-08-22T13:02:52.348Z,6.20
2018-08-22T13:05:19.724Z,5.47
2018-08-22T13:07:47.144Z,5.33
2018-08-22T13:10:15.359Z,5.13
2018-08-22T13:12:42.717Z,5.67
2018-08-22T13:15:14.576Z,4.90
2018-08-22T13:17:41.957Z,5.70
2018-08-22T13:20:09.380Z,5.20
2018-08-22T13:22:36.708Z,5.50
2018-08-22T13:25:04.143Z,5.13
2018-08-22T13:27:31.568Z,5.63
2018-08-22T13:30:01.125Z,5.70
2018-08-22T13:32:29.155Z,5.30
2018-08-22T13:34:56.577Z,6.10
2018-08-22T13:37:24.075Z,5.27
2018-08-22T13:39:51.604Z,6.20
2018-08-22T13:42:19.092Z,5.37
2018-08-22T13:44:46.535Z,5.60
2018-08-22T13:47:14.015Z,5.37
2018-08-22T13:49:41.419Z,4.87
2018-08-22T13:52:08.965Z,5.80
2018-08-22T13:54:36.376Z,4.93
2018-08-22T13:57:07.029Z,5.60
2018-08-22T13:59:34.403Z,4.77
2018-08-22T14:02:01.857Z,5.60
2018-08-22T14:04:29.338Z,4.90
2018-08-22T14:06:56.780Z,5.40
2018-08-22T14:09:24.199Z,5.17
2018-08-22T14:11:51.579Z,5.37
2018-08-22T14:14:23.819Z,5.50
2018-08-22T14:16:51.270Z,5.37
2018-08-22T14:19:18.695Z,5.27
2018-08-22T14:21:46.136Z,5.57
2018-08-22T14:24:13.587Z,5.77
2018-08-22T14:26:45.718Z,5.93
2018-08-22T14:29:13.108Z,5.23
2018-08-22T14:31:40.742Z,5.30
2018-08-22T14:34:08.064Z,5.60
2018-08-22T14:36:35.437Z,5.40
2018-08-22T14:39:04.687Z,5.23
2018-08-22T14:41:32.065Z,5.53
2018-08-22T14:44:00.756Z,4.57
2018-08-22T14:46:28.180Z,5.00
2018-08-22T14:48:55.855Z,4.60
2018-08-22T14:51:23.233Z,4.50
2018-08-22T14:53:50.697Z,5.03
2018-08-22T14:56:18.180Z,4.77
2018-08-22T14:58:45.427Z,5.00
2018-08-22T15:01:12.808Z,4.80
2018-08-22T15:03:40.251Z,6.40
2018-08-22T15:06:07.715Z,5.77
2018-08-22T15:08:35.096Z,6.23
2018-08-22T15:11:02.720Z,6.60
2018-08-22T15:13:30.153Z,6.17
2018-08-22T15:15:57.712Z,7.47
2018-08-22T15:18:25.081Z,7.30
2018-08-22T15:20:52.621Z,6.70
2018-08-22T15:23:20.275Z,6.80
2018-08-22T15:25:47.611Z,6.43
2018-08-22T15:28:15.024Z,6.03
2018-08-22T15:30:42.630Z,6.07
2018-08-22T15:33:09.984Z,7.27
2018-08-22T15:35:40.267Z,6.57
2018-08-22T15:38:07.644Z,6.70
2018-08-22T15:40:35.117Z,7.20
2018-08-22T15:43:02.464Z,6.90
2018-08-22T15:45:29.821Z,6.77
2018-08-22T15:47:57.156Z,7.77
2018-08-22T15:50:24.515Z,7.80
2018-08-22T15:52:51.977Z,8.53
2018-08-22T15:55:19.364Z,7.60
2018-08-22T15:57:57.508Z,8.37
2018-08-22T16:00:47.243Z,7.80
2018-08-22T16:03:14.610Z,8.70
2018-08-22T16:05:42.895Z,7.00
2018-08-22T16:08:10.799Z,7.37
2018-08-22T16:10:39.229Z,8.90
2018-08-22T16:13:14.594Z,8.30
2018-08-22T16:15:41.960Z,8.30
2018-08-22T16:18:09.411Z,8.73
2018-08-22T16:20:48.051Z,9.00
2018-08-22T16:23:15.424Z,7.77
2018-08-22T16:25:46.086Z,8.50
2018-08-22T16:28:13.493Z,8.27
2018-08-22T16:30:40.865Z,7.37
2018-08-22T16:33:13.128Z,8.47
2018-08-22T16:35:40.531Z,8.50
2018-08-22T16:38:12.824Z,7.53
2018-08-22T16:40:41.499Z,8.43
2018-08-22T16:43:08.976Z,7.17
2018-08-22T16:45:43.157Z,7.80
2018-08-22T16:48:11.488Z,8.33
2018-08-22T16:50:38.844Z,9.10
2018-08-22T16:53:06.243Z,9.57
2018-08-22T16:55:33.584Z,8.93
2018-08-22T16:58:01.036Z,8.30
2018-08-22T17:00:37.139Z,9.67
2018-08-22T17:03:05.825Z,9.37
2018-08-22T17:05:33.496Z,10.90
2018-08-22T17:08:00.921Z,9.83
2018-08-22T17:10:35.483Z,13.57
2018-08-22T17:13:04.251Z,10.33
2018-08-22T17:15:31.589Z,10.40
2018-08-22T17:17:58.964Z,8.60
2018-08-22T17:20:26.292Z,11.60
2018-08-22T17:22:53.633Z,11.10
2018-08-22T17:25:21.119Z,10.90
2018-08-22T17:27:48.527Z,11.30
2018-08-22T17:30:18.315Z,10.30
2018-08-22T17:32:45.870Z,12.00
2018-08-22T17:35:14.779Z,12.37
2018-08-22T17:37:57.645Z,11.17
2018-08-22T17:40:25.193Z,10.33
2018-08-22T17:42:52.744Z,11.20
2018-08-22T17:45:40.270Z,11.20
2018-08-22T17:48:07.648Z,12.30
2018-08-22T17:50:35.168Z,12.77
2018-08-22T17:53:05.168Z,11.00
2018-08-22T17:55:32.912Z,11.20
2018-08-22T17:58:00.386Z,11.80
2018-08-22T18:00:29.624Z,13.40
2018-08-22T18:02:57.760Z,16.17
2018-08-22T18:05:25.209Z,14.07
2018-08-22T18:07:52.600Z,14.70
2018-08-22T18:10:20.013Z,13.80
2018-08-22T18:12:47.419Z,14.77
2018-08-22T18:15:14.839Z,14.33
2018-08-22T18:17:42.736Z,14.77
2018-08-22T18:20:10.179Z,14.90
2018-08-22T18:22:39.148Z,13.20
2018-08-22T18:25:06.806Z,15.10
2018-08-22T18:27:34.295Z,14.30
2018-08-22T18:30:01.806Z,14.20
2018-08-22T18:32:29.208Z,14.40
2018-08-22T18:35:13.231Z,16.30
2018-08-22T18:37:42.793Z,14.10
2018-08-22T18:40:16.692Z,15.10
2018-08-22T18:42:47.027Z,14.07
2018-08-22T18:45:14.421Z,15.43
2018-08-22T18:47:41.858Z,13.70
2018-08-22T18:50:09.296Z,13.93
2018-08-22T18:52:36.669Z,16.40
2018-08-22T18:55:04.159Z,14.77
2018-08-22T18:57:31.586Z,14.90
2018-08-22T19:00:01.764Z,14.90
2018-08-22T19:02:29.220Z,14.50
2018-08-22T19:05:01.565Z,17.63
2018-08-22T19:07:29.116Z,16.17
2018-08-22T19:09:59.679Z,17.37
2018-08-22T19:12:27.119Z,15.90
2018-08-22T19:14:54.548Z,15.17
2018-08-22T19:17:21.935Z,15.93
2018-08-22T19:19:49.350Z,15.33
2018-08-22T19:22:21.559Z,16.20
2018-08-22T19:25:05.373Z,16.63
2018-08-22T19:27:33.664Z,16.70
2018-08-22T19:30:04.967Z,18.20
2018-08-22T19:32:32.331Z,15.67
2018-08-22T19:34:59.783Z,15.53
2018-08-22T19:37:27.249Z,15.67
2018-08-22T19:40:05.020Z,15.77
2018-08-22T19:42:34.160Z,17.50
2018-08-22T19:45:02.857Z,18.03
2018-08-22T19:47:30.282Z,17.17
2018-08-22T19:50:02.332Z,18.80
2018-08-22T19:52:30.707Z,18.13
2018-08-22T19:54:58.170Z,18.70
2018-08-22T19:57:33.231Z,20.87
2018-08-22T20:00:05.952Z,19.63
2018-08-22T20:02:34.198Z,19.17
2018-08-22T20:05:01.572Z,17.80
2018-08-22T20:07:29.043Z,19.13
2018-08-22T20:09:56.455Z,18.90
2018-08-22T20:12:35.423Z,19.93
2018-08-22T20:15:03.015Z,19.70
2018-08-22T20:17:31.009Z,19.50
2018-08-22T20:19:58.452Z,18.03
2018-08-22T20:22:35.359Z,22.23
2018-08-22T20:25:02.972Z,20.60
2018-08-22T20:27:30.462Z,19.33
2018-08-22T20:30:02.633Z,20.63
2018-08-22T20:32:31.921Z,19.77
2018-08-22T20:35:00.436Z,20.20
2018-08-22T20:37:27.931Z,19.00
2018-08-22T20:40:01.574Z,21.60
2018-08-22T20:42:28.931Z,19.37
2018-08-22T20:44:59.348Z,19.30
2018-08-22T20:47:27.067Z,19.47
2018-08-22T20:49:54.935Z,21.50
2018-08-22T20:52:22.390Z,18.87
2018-08-22T20:54:55.312Z,20.70
2018-08-22T20:57:27.158Z,20.07
2018-08-22T20:59:54.576Z,20.63
2018-08-22T21:02:22.016Z,20.60
2018-08-22T21:04:49.478Z,21.40
2018-08-22T21:07:21.177Z,22.60
2018-08-22T21:09:48.569Z,24.47
2018-08-22T21:12:17.572Z,22.03
2018-08-22T21:14:45.057Z,24.40
2018-08-22T21:17:12.348Z,22.20
2018-08-22T21:19:39.765Z,23.67
2018-08-22T21:22:42.376Z,22.93
2018-08-22T21:25:10.603Z,25.03
2018-08-22T21:27:38.032Z,23.17
2018-08-22T21:30:05.497Z,23.70
2018-08-22T21:32:32.951Z,23.60
2018-08-22T21:35:03.853Z,25.07
2018-08-22T21:37:31.306Z,22.00
2018-08-22T21:39:58.714Z,23.00
2018-08-22T21:42:33.279Z,25.43
2018-08-22T21:45:01.128Z,22.93
2018-08-22T21:47:32.341Z,22.40
2018-08-22T21:49:59.832Z,22.97
2018-08-22T21:52:47.232Z,23.47
2018-08-22T21:55:14.757Z,22.73
2018-08-22T21:57:42.159Z,24.27
2018-08-22T22:00:09.940Z,22.43
2018-08-22T22:02:42.547Z,22.70
2018-08-22T22:05:10.851Z,25.17
2018-08-22T22:07:38.523Z,30.83
2018-08-22T22:10:09.838Z,27.77
2018-08-22T22:12:37.843Z,25.20
2018-08-22T22:15:05.587Z,23.10
2018-08-22T22:17:33.000Z,22.80
2018-08-22T22:20:00.842Z,22.77
2018-08-22T22:22:28.244Z,21.50
2018-08-22T22:25:01.887Z,21.80
2018-08-22T22:27:29.778Z,22.47
2018-08-22T22:29:59.903Z,22.20
2018-08-22T22:32:27.365Z,21.60
2018-08-22T22:34:54.744Z,23.20
2018-08-22T22:37:22.126Z,21.50
2018-08-22T22:39:51.036Z,25.67
2018-08-22T22:42:25.052Z,20.90
2018-08-22T22:44:53.437Z,21.13
2018-08-22T22:47:26.559Z,20.93
2018-08-22T22:49:54.351Z,21.87
2018-08-22T22:52:26.666Z,21.33
2018-08-22T22:54:56.252Z,22.03
2018-08-22T22:57:24.940Z,24.43
2018-08-22T22:59:52.965Z,23.77
2018-08-22T23:02:23.604Z,22.60
2018-08-22T23:04:52.691Z,23.37
2018-08-22T23:07:29.579Z,21.47
2018-08-22T23:09:59.050Z,22.70
2018-08-22T23:12:46.657Z,21.67
2018-08-22T23:15:22.846Z,24.10
2018-08-22T23:17:52.803Z,24.00
2018-08-22T23:20:29.857Z,24.10
2018-08-22T23:22:57.267Z,23.37
2018-08-22T23:25:25.081Z,21.80
2018-08-22T23:27:52.488Z,22.53
2018-08-22T23:30:22.103Z,22.20
2018-08-22T23:32:49.571Z,22.17
2018-08-22T23:35:26.332Z,22.57
2018-08-22T23:37:54.727Z,21.70
2018-08-22T23:40:24.146Z,22.50
2018-08-22T23:42:51.943Z,21.40
2018-08-22T23:45:19.386Z,22.67
2018-08-22T23:47:46.808Z,24.20
2018-08-22T23:50:14.271Z,27.50
2018-08-22T23:52:47.662Z,24.57
2018-08-22T23:55:15.091Z,23.83
2018-08-22T23:57:42.475Z,24.80
